sensor_id;sensor_type;location;lat;lon;timestamp;P1;durP1;ratioP1;P2;durP2;ratioP2
40198;SDS011;25906;43.536;26.068;2022-09-24T00:00:46;4.97;;;2.67;;
40198;SDS011;25906;43.536;26.068;2022-09-24T00:03:43;9.13;;;3.05;;
40198;SDS011;25906;43.536;26.068;2022-09-24T00:06:37;5.13;;;2.30;;
40198;SDS011;25906;43.536;26.068;2022-09-24T00:09:25;6.15;;;2.50;;
40198;SDS011;25906;43.536;26.068;2022-09-24T00:12:10;5.45;;;2.47;;
40198;SDS011;25906;43.536;26.068;2022-09-24T00:14:57;5.25;;;2.67;;
40198;SDS011;25906;43.536;26.068;2022-09-24T00:17:42;5.13;;;2.65;;
40198;SDS011;25906;43.536;26.068;2022-09-24T00:20:30;6.15;;;2.47;;
40198;SDS011;25906;43.536;26.068;2022-09-24T00:23:17;3.17;;;2.13;;
40198;SDS011;25906;43.536;26.068;2022-09-24T00:26:02;2.88;;;2.13;;
40198;SDS011;25906;43.536;26.068;2022-09-24T00:29:07;3.85;;;2.58;;
40198;SDS011;25906;43.536;26.068;2022-09-24T00:31:54;3.20;;;2.08;;
40198;SDS011;25906;43.536;26.068;2022-09-24T00:34:39;3.47;;;2.45;;
40198;SDS011;25906;43.536;26.068;2022-09-24T00:37:25;4.13;;;2.35;;
40198;SDS011;25906;43.536;26.068;2022-09-24T00:40:12;5.72;;;2.35;;
40198;SDS011;25906;43.536;26.068;2022-09-24T00:42:59;5.53;;;2.10;;
40198;SDS011;25906;43.536;26.068;2022-09-24T00:45:45;3.75;;;2.17;;
40198;SDS011;25906;43.536;26.068;2022-09-24T00:48:30;4.10;;;2.10;;
40198;SDS011;25906;43.536;26.068;2022-09-24T00:51:19;6.57;;;2.88;;
40198;SDS011;25906;43.536;26.068;2022-09-24T00:54:08;2.67;;;1.90;;
40198;SDS011;25906;43.536;26.068;2022-09-24T00:56:57;4.80;;;2.40;;
40198;SDS011;25906;43.536;26.068;2022-09-24T00:59:44;3.80;;;2.42;;
40198;SDS011;25906;43.536;26.068;2022-09-24T01:02:29;4.53;;;2.55;;
40198;SDS011;25906;43.536;26.068;2022-09-24T01:05:16;3.75;;;2.42;;
40198;SDS011;25906;43.536;26.068;2022-09-24T01:08:02;3.58;;;2.42;;
40198;SDS011;25906;43.536;26.068;2022-09-24T01:11:03;3.08;;;2.00;;
40198;SDS011;25906;43.536;26.068;2022-09-24T01:17:28;5.30;;;2.10;;
40198;SDS011;25906;43.536;26.068;2022-09-24T01:26:34;3.03;;;2.03;;
40198;SDS011;25906;43.536;26.068;2022-09-24T01:35:46;3.08;;;1.77;;
40198;SDS011;25906;43.536;26.068;2022-09-24T01:38:39;2.05;;;1.77;;
40198;SDS011;25906;43.536;26.068;2022-09-24T01:41:26;3.08;;;2.03;;
40198;SDS011;25906;43.536;26.068;2022-09-24T01:44:12;2.20;;;1.70;;
40198;SDS011;25906;43.536;26.068;2022-09-24T01:46:58;4.13;;;1.92;;
40198;SDS011;25906;43.536;26.068;2022-09-24T01:49:43;2.67;;;2.20;;
40198;SDS011;25906;43.536;26.068;2022-09-24T01:52:31;3.58;;;1.98;;
40198;SDS011;25906;43.536;26.068;2022-09-24T01:55:26;3.15;;;1.70;;
40198;SDS011;25906;43.536;26.068;2022-09-24T01:58:24;2.55;;;2.08;;
40198;SDS011;25906;43.536;26.068;2022-09-24T02:01:14;2.72;;;1.88;;
40198;SDS011;25906;43.536;26.068;2022-09-24T02:04:05;4.45;;;2.10;;
40198;SDS011;25906;43.536;26.068;2022-09-24T02:07:01;4.10;;;2.10;;
40198;SDS011;25906;43.536;26.068;2022-09-24T02:09:50;6.00;;;2.47;;
40198;SDS011;25906;43.536;26.068;2022-09-24T02:12:36;3.15;;;1.85;;
40198;SDS011;25906;43.536;26.068;2022-09-24T02:15:27;3.75;;;2.20;;
40198;SDS011;25906;43.536;26.068;2022-09-24T02:18:17;2.70;;;2.10;;
40198;SDS011;25906;43.536;26.068;2022-09-24T02:21:09;3.25;;;2.35;;
40198;SDS011;25906;43.536;26.068;2022-09-24T02:24:03;2.20;;;2.00;;
40198;SDS011;25906;43.536;26.068;2022-09-24T02:26:52;3.15;;;1.85;;
40198;SDS011;25906;43.536;26.068;2022-09-24T02:29:39;2.22;;;1.80;;
40198;SDS011;25906;43.536;26.068;2022-09-24T02:32:25;3.10;;;2.05;;
40198;SDS011;25906;43.536;26.068;2022-09-24T02:35:13;5.45;;;2.40;;
40198;SDS011;25906;43.536;26.068;2022-09-24T02:37:59;6.22;;;2.08;;
40198;SDS011;25906;43.536;26.068;2022-09-24T02:40:45;2.50;;;2.00;;
40198;SDS011;25906;43.536;26.068;2022-09-24T02:43:32;1.73;;;1.60;;
40198;SDS011;25906;43.536;26.068;2022-09-24T02:46:19;3.63;;;1.52;;
40198;SDS011;25906;43.536;26.068;2022-09-24T02:49:05;3.15;;;2.10;;
40198;SDS011;25906;43.536;26.068;2022-09-24T02:51:50;2.75;;;2.00;;
40198;SDS011;25906;43.536;26.068;2022-09-24T02:54:36;3.30;;;1.95;;
40198;SDS011;25906;43.536;26.068;2022-09-24T02:57:22;2.17;;;1.80;;
40198;SDS011;25906;43.536;26.068;2022-09-24T03:00:07;2.38;;;1.75;;
40198;SDS011;25906;43.536;26.068;2022-09-24T03:02:54;2.90;;;1.95;;
40198;SDS011;25906;43.536;26.068;2022-09-24T03:05:39;3.25;;;2.05;;
40198;SDS011;25906;43.536;26.068;2022-09-24T03:08:24;2.05;;;1.75;;
40198;SDS011;25906;43.536;26.068;2022-09-24T03:11:11;3.55;;;1.83;;
40198;SDS011;25906;43.536;26.068;2022-09-24T03:13:57;2.40;;;2.03;;
40198;SDS011;25906;43.536;26.068;2022-09-24T03:16:43;2.85;;;2.33;;
40198;SDS011;25906;43.536;26.068;2022-09-24T03:19:28;4.55;;;2.38;;
40198;SDS011;25906;43.536;26.068;2022-09-24T03:22:14;3.63;;;2.42;;
40198;SDS011;25906;43.536;26.068;2022-09-24T03:24:59;2.88;;;2.17;;
40198;SDS011;25906;43.536;26.068;2022-09-24T03:27:45;4.45;;;2.03;;
40198;SDS011;25906;43.536;26.068;2022-09-24T03:30:31;5.32;;;2.38;;
40198;SDS011;25906;43.536;26.068;2022-09-24T03:36:22;2.42;;;1.90;;
40198;SDS011;25906;43.536;26.068;2022-09-24T03:39:12;4.03;;;2.10;;
40198;SDS011;25906;43.536;26.068;2022-09-24T03:41:57;3.05;;;2.13;;
40198;SDS011;25906;43.536;26.068;2022-09-24T03:44:43;9.93;;;2.42;;
40198;SDS011;25906;43.536;26.068;2022-09-24T03:47:28;4.55;;;2.05;;
40198;SDS011;25906;43.536;26.068;2022-09-24T03:50:15;2.65;;;2.03;;
40198;SDS011;25906;43.536;26.068;2022-09-24T03:55:48;2.67;;;2.03;;
40198;SDS011;25906;43.536;26.068;2022-09-24T03:58:38;3.15;;;1.92;;
40198;SDS011;25906;43.536;26.068;2022-09-24T04:01:24;6.95;;;2.35;;
40198;SDS011;25906;43.536;26.068;2022-09-24T04:04:09;3.53;;;2.30;;
40198;SDS011;25906;43.536;26.068;2022-09-24T04:06:59;2.85;;;2.30;;
40198;SDS011;25906;43.536;26.068;2022-09-24T04:09:44;3.13;;;2.10;;
40198;SDS011;25906;43.536;26.068;2022-09-24T04:12:30;2.53;;;2.08;;
40198;SDS011;25906;43.536;26.068;2022-09-24T04:15:15;2.90;;;2.00;;
40198;SDS011;25906;43.536;26.068;2022-09-24T04:18:02;2.42;;;1.90;;
40198;SDS011;25906;43.536;26.068;2022-09-24T04:20:47;2.97;;;2.05;;
40198;SDS011;25906;43.536;26.068;2022-09-24T04:23:33;4.10;;;2.28;;
40198;SDS011;25906;43.536;26.068;2022-09-24T04:26:18;2.65;;;1.95;;
40198;SDS011;25906;43.536;26.068;2022-09-24T04:29:04;3.08;;;2.35;;
40198;SDS011;25906;43.536;26.068;2022-09-24T04:31:52;2.85;;;2.25;;
40198;SDS011;25906;43.536;26.068;2022-09-24T04:34:37;3.90;;;2.72;;
40198;SDS011;25906;43.536;26.068;2022-09-24T04:37:22;7.15;;;4.32;;
40198;SDS011;25906;43.536;26.068;2022-09-24T04:40:08;5.38;;;4.05;;
40198;SDS011;25906;43.536;26.068;2022-09-24T04:42:54;4.53;;;3.08;;
40198;SDS011;25906;43.536;26.068;2022-09-24T04:45:40;3.85;;;2.50;;
40198;SDS011;25906;43.536;26.068;2022-09-24T04:48:28;2.95;;;2.28;;
40198;SDS011;25906;43.536;26.068;2022-09-24T04:54:00;2.80;;;2.20;;
40198;SDS011;25906;43.536;26.068;2022-09-24T04:56:48;3.70;;;2.17;;
40198;SDS011;25906;43.536;26.068;2022-09-24T04:59:33;4.72;;;2.13;;
40198;SDS011;25906;43.536;26.068;2022-09-24T05:02:19;4.28;;;2.10;;
40198;SDS011;25906;43.536;26.068;2022-09-24T05:05:04;7.53;;;3.65;;
40198;SDS011;25906;43.536;26.068;2022-09-24T05:10:36;5.53;;;3.60;;
40198;SDS011;25906;43.536;26.068;2022-09-24T05:13:22;4.35;;;3.25;;
40198;SDS011;25906;43.536;26.068;2022-09-24T05:16:07;6.32;;;3.00;;
40198;SDS011;25906;43.536;26.068;2022-09-24T05:18:53;3.38;;;2.70;;
40198;SDS011;25906;43.536;26.068;2022-09-24T05:21:38;6.95;;;2.88;;
40198;SDS011;25906;43.536;26.068;2022-09-24T05:24:24;4.45;;;2.47;;
40198;SDS011;25906;43.536;26.068;2022-09-24T05:27:09;3.88;;;2.63;;
40198;SDS011;25906;43.536;26.068;2022-09-24T05:29:55;3.10;;;2.28;;
40198;SDS011;25906;43.536;26.068;2022-09-24T05:32:40;3.38;;;2.42;;
40198;SDS011;25906;43.536;26.068;2022-09-24T05:35:26;2.85;;;2.35;;
40198;SDS011;25906;43.536;26.068;2022-09-24T05:38:11;3.50;;;2.28;;
40198;SDS011;25906;43.536;26.068;2022-09-24T05:40:57;3.20;;;2.40;;
40198;SDS011;25906;43.536;26.068;2022-09-24T05:43:42;5.43;;;2.13;;
40198;SDS011;25906;43.536;26.068;2022-09-24T05:46:28;2.83;;;2.28;;
40198;SDS011;25906;43.536;26.068;2022-09-24T05:49:13;3.92;;;2.55;;
40198;SDS011;25906;43.536;26.068;2022-09-24T05:51:58;2.67;;;2.38;;
40198;SDS011;25906;43.536;26.068;2022-09-24T05:54:44;3.03;;;2.40;;
40198;SDS011;25906;43.536;26.068;2022-09-24T05:57:29;5.53;;;2.72;;
40198;SDS011;25906;43.536;26.068;2022-09-24T06:00:15;7.47;;;5.70;;
40198;SDS011;25906;43.536;26.068;2022-09-24T06:03:01;4.88;;;3.17;;
40198;SDS011;25906;43.536;26.068;2022-09-24T06:05:51;3.58;;;2.70;;
40198;SDS011;25906;43.536;26.068;2022-09-24T06:08:37;5.95;;;3.40;;
40198;SDS011;25906;43.536;26.068;2022-09-24T06:11:22;3.65;;;2.70;;
40198;SDS011;25906;43.536;26.068;2022-09-24T06:14:08;3.60;;;2.40;;
40198;SDS011;25906;43.536;26.068;2022-09-24T06:16:53;3.95;;;2.72;;
40198;SDS011;25906;43.536;26.068;2022-09-24T06:19:40;3.25;;;2.33;;
40198;SDS011;25906;43.536;26.068;2022-09-24T06:22:27;5.72;;;2.70;;
40198;SDS011;25906;43.536;26.068;2022-09-24T06:25:12;2.88;;;2.45;;
40198;SDS011;25906;43.536;26.068;2022-09-24T06:27:58;3.03;;;2.42;;
40198;SDS011;25906;43.536;26.068;2022-09-24T06:30:45;4.80;;;3.10;;
40198;SDS011;25906;43.536;26.068;2022-09-24T06:33:37;3.92;;;2.60;;
40198;SDS011;25906;43.536;26.068;2022-09-24T06:36:24;3.22;;;2.03;;
40198;SDS011;25906;43.536;26.068;2022-09-24T06:39:10;3.17;;;2.38;;
40198;SDS011;25906;43.536;26.068;2022-09-24T06:41:55;4.28;;;2.60;;
40198;SDS011;25906;43.536;26.068;2022-09-24T06:44:42;3.05;;;2.20;;
40198;SDS011;25906;43.536;26.068;2022-09-24T06:47:27;5.85;;;2.25;;
40198;SDS011;25906;43.536;26.068;2022-09-24T06:50:14;5.07;;;1.85;;
40198;SDS011;25906;43.536;26.068;2022-09-24T06:52:59;3.92;;;2.30;;
40198;SDS011;25906;43.536;26.068;2022-09-24T06:55:45;5.28;;;2.53;;
40198;SDS011;25906;43.536;26.068;2022-09-24T06:58:30;3.17;;;2.17;;
40198;SDS011;25906;43.536;26.068;2022-09-24T07:01:15;2.22;;;1.95;;
40198;SDS011;25906;43.536;26.068;2022-09-24T07:04:01;2.78;;;2.17;;
40198;SDS011;25906;43.536;26.068;2022-09-24T07:06:46;3.78;;;1.70;;
40198;SDS011;25906;43.536;26.068;2022-09-24T07:09:50;3.38;;;2.20;;
40198;SDS011;25906;43.536;26.068;2022-09-24T07:12:35;2.30;;;2.10;;
40198;SDS011;25906;43.536;26.068;2022-09-24T07:15:21;3.03;;;2.20;;
40198;SDS011;25906;43.536;26.068;2022-09-24T07:18:06;4.85;;;2.17;;
40198;SDS011;25906;43.536;26.068;2022-09-24T07:20:53;2.28;;;1.92;;
40198;SDS011;25906;43.536;26.068;2022-09-24T07:23:39;2.83;;;2.00;;
40198;SDS011;25906;43.536;26.068;2022-09-24T07:26:24;1.88;;;1.67;;
40198;SDS011;25906;43.536;26.068;2022-09-24T07:29:12;2.55;;;1.60;;
40198;SDS011;25906;43.536;26.068;2022-09-24T07:31:57;2.97;;;1.90;;
40198;SDS011;25906;43.536;26.068;2022-09-24T07:34:43;3.10;;;1.95;;
40198;SDS011;25906;43.536;26.068;2022-09-24T07:37:29;3.50;;;1.85;;
40198;SDS011;25906;43.536;26.068;2022-09-24T07:40:17;2.97;;;1.83;;
40198;SDS011;25906;43.536;26.068;2022-09-24T07:43:04;2.85;;;2.00;;
40198;SDS011;25906;43.536;26.068;2022-09-24T07:45:51;1.95;;;1.75;;
40198;SDS011;25906;43.536;26.068;2022-09-24T07:48:36;2.85;;;2.17;;
40198;SDS011;25906;43.536;26.068;2022-09-24T07:51:22;2.83;;;2.08;;
40198;SDS011;25906;43.536;26.068;2022-09-24T07:54:09;3.72;;;1.80;;
40198;SDS011;25906;43.536;26.068;2022-09-24T07:56:55;2.20;;;1.85;;
40198;SDS011;25906;43.536;26.068;2022-09-24T07:59:41;6.07;;;1.70;;
40198;SDS011;25906;43.536;26.068;2022-09-24T08:02:28;2.92;;;2.00;;
40198;SDS011;25906;43.536;26.068;2022-09-24T08:05:14;2.38;;;1.90;;
40198;SDS011;25906;43.536;26.068;2022-09-24T08:08:00;2.33;;;1.88;;
40198;SDS011;25906;43.536;26.068;2022-09-24T08:10:46;3.75;;;1.98;;
40198;SDS011;25906;43.536;26.068;2022-09-24T08:13:31;2.63;;;1.92;;
40198;SDS011;25906;43.536;26.068;2022-09-24T08:16:20;1.88;;;1.60;;
40198;SDS011;25906;43.536;26.068;2022-09-24T08:19:05;4.75;;;1.42;;
40198;SDS011;25906;43.536;26.068;2022-09-24T08:21:57;1.98;;;1.58;;
40198;SDS011;25906;43.536;26.068;2022-09-24T08:24:42;3.95;;;1.70;;
40198;SDS011;25906;43.536;26.068;2022-09-24T08:27:28;5.43;;;1.90;;
40198;SDS011;25906;43.536;26.068;2022-09-24T08:30:13;1.90;;;1.67;;
40198;SDS011;25906;43.536;26.068;2022-09-24T08:32:59;3.03;;;1.70;;
40198;SDS011;25906;43.536;26.068;2022-09-24T08:35:45;4.00;;;1.90;;
40198;SDS011;25906;43.536;26.068;2022-09-24T08:38:30;1.63;;;1.50;;
40198;SDS011;25906;43.536;26.068;2022-09-24T08:44:45;2.88;;;1.10;;
40198;SDS011;25906;43.536;26.068;2022-09-24T08:47:53;1.50;;;1.30;;
40198;SDS011;25906;43.536;26.068;2022-09-24T08:50:47;5.15;;;1.88;;
40198;SDS011;25906;43.536;26.068;2022-09-24T08:56:33;1.73;;;1.63;;
40198;SDS011;25906;43.536;26.068;2022-09-24T08:59:29;3.75;;;1.70;;
40198;SDS011;25906;43.536;26.068;2022-09-24T09:05:41;1.90;;;1.65;;
40198;SDS011;25906;43.536;26.068;2022-09-24T09:08:39;1.95;;;1.60;;
40198;SDS011;25906;43.536;26.068;2022-09-24T09:11:35;1.45;;;1.30;;
40198;SDS011;25906;43.536;26.068;2022-09-24T09:14:25;3.97;;;3.53;;
40198;SDS011;25906;43.536;26.068;2022-09-24T09:17:25;1.88;;;1.40;;
40198;SDS011;25906;43.536;26.068;2022-09-24T09:20:17;1.63;;;1.40;;
40198;SDS011;25906;43.536;26.068;2022-09-24T09:23:42;2.00;;;1.48;;
40198;SDS011;25906;43.536;26.068;2022-09-24T09:26:23;1.60;;;1.50;;
40198;SDS011;25906;43.536;26.068;2022-09-24T09:29:09;1.30;;;1.10;;
40198;SDS011;25906;43.536;26.068;2022-09-24T09:32:04;3.78;;;1.25;;
40198;SDS011;25906;43.536;26.068;2022-09-24T09:38:34;1.65;;;1.10;;
40198;SDS011;25906;43.536;26.068;2022-09-24T09:44:48;3.35;;;1.55;;
40198;SDS011;25906;43.536;26.068;2022-09-24T09:47:47;2.10;;;1.30;;
40198;SDS011;25906;43.536;26.068;2022-09-24T09:50:36;2.42;;;1.40;;
40198;SDS011;25906;43.536;26.068;2022-09-24T09:53:26;0.98;;;0.98;;
40198;SDS011;25906;43.536;26.068;2022-09-24T09:56:15;2.05;;;1.20;;
40198;SDS011;25906;43.536;26.068;2022-09-24T10:01:55;3.85;;;1.17;;
40198;SDS011;25906;43.536;26.068;2022-09-24T10:04:41;1.50;;;1.20;;
40198;SDS011;25906;43.536;26.068;2022-09-24T10:07:27;1.73;;;1.30;;
40198;SDS011;25906;43.536;26.068;2022-09-24T10:10:17;4.22;;;1.25;;
40198;SDS011;25906;43.536;26.068;2022-09-24T10:13:08;4.93;;;1.20;;
40198;SDS011;25906;43.536;26.068;2022-09-24T10:15:57;2.30;;;0.98;;
40198;SDS011;25906;43.536;26.068;2022-09-24T10:18:46;1.65;;;1.05;;
40198;SDS011;25906;43.536;26.068;2022-09-24T10:21:34;1.23;;;1.13;;
40198;SDS011;25906;43.536;26.068;2022-09-24T10:24:21;2.80;;;1.00;;
40198;SDS011;25906;43.536;26.068;2022-09-24T10:27:12;1.67;;;1.40;;
40198;SDS011;25906;43.536;26.068;2022-09-24T10:30:13;4.93;;;1.25;;
40198;SDS011;25906;43.536;26.068;2022-09-24T10:33:19;6.88;;;1.30;;
40198;SDS011;25906;43.536;26.068;2022-09-24T10:36:06;8.48;;;1.17;;
40198;SDS011;25906;43.536;26.068;2022-09-24T10:41:52;2.97;;;1.10;;
40198;SDS011;25906;43.536;26.068;2022-09-24T10:44:40;1.85;;;0.93;;
40198;SDS011;25906;43.536;26.068;2022-09-24T10:47:26;1.55;;;1.10;;
40198;SDS011;25906;43.536;26.068;2022-09-24T10:50:26;1.58;;;0.98;;
40198;SDS011;25906;43.536;26.068;2022-09-24T10:56:07;1.45;;;1.20;;
40198;SDS011;25906;43.536;26.068;2022-09-24T11:04:49;1.30;;;1.05;;
40198;SDS011;25906;43.536;26.068;2022-09-24T11:16:42;1.20;;;1.10;;
40198;SDS011;25906;43.536;26.068;2022-09-24T11:29:13;1.60;;;1.30;;
40198;SDS011;25906;43.536;26.068;2022-09-24T11:35:23;3.25;;;1.50;;
40198;SDS011;25906;43.536;26.068;2022-09-24T11:44:15;2.17;;;1.35;;
40198;SDS011;25906;43.536;26.068;2022-09-24T11:47:13;2.80;;;1.23;;
40198;SDS011;25906;43.536;26.068;2022-09-24T11:56:55;1.58;;;1.35;;
40198;SDS011;25906;43.536;26.068;2022-09-24T12:02:58;2.17;;;1.40;;
40198;SDS011;25906;43.536;26.068;2022-09-24T12:05:57;1.33;;;1.20;;
40198;SDS011;25906;43.536;26.068;2022-09-24T12:08:51;2.05;;;1.40;;
40198;SDS011;25906;43.536;26.068;2022-09-24T12:12:15;1.58;;;1.08;;
40198;SDS011;25906;43.536;26.068;2022-09-24T12:15:44;1.98;;;1.10;;
40198;SDS011;25906;43.536;26.068;2022-09-24T12:18:14;1.65;;;1.55;;
40198;SDS011;25906;43.536;26.068;2022-09-24T12:21:06;3.75;;;2.00;;
40198;SDS011;25906;43.536;26.068;2022-09-24T12:23:54;1.80;;;1.40;;
40198;SDS011;25906;43.536;26.068;2022-09-24T12:26:47;1.30;;;1.20;;
40198;SDS011;25906;43.536;26.068;2022-09-24T12:29:38;2.63;;;1.98;;
40198;SDS011;25906;43.536;26.068;2022-09-24T12:32:51;1.95;;;1.40;;
40198;SDS011;25906;43.536;26.068;2022-09-24T12:35:51;1.73;;;1.50;;
40198;SDS011;25906;43.536;26.068;2022-09-24T12:41:46;3.97;;;1.60;;
40198;SDS011;25906;43.536;26.068;2022-09-24T12:44:43;1.38;;;1.27;;
40198;SDS011;25906;43.536;26.068;2022-09-24T12:47:33;1.87;;;1.57;;
40198;SDS011;25906;43.536;26.068;2022-09-24T12:50:53;1.63;;;1.40;;
40198;SDS011;25906;43.536;26.068;2022-09-24T12:53:42;1.60;;;1.50;;
40198;SDS011;25906;43.536;26.068;2022-09-24T12:56:38;3.53;;;1.70;;
40198;SDS011;25906;43.536;26.068;2022-09-24T12:59:25;2.22;;;1.58;;
40198;SDS011;25906;43.536;26.068;2022-09-24T13:02:13;1.75;;;1.40;;
40198;SDS011;25906;43.536;26.068;2022-09-24T13:10:56;1.40;;;1.25;;
40198;SDS011;25906;43.536;26.068;2022-09-24T13:13:44;1.58;;;1.40;;
40198;SDS011;25906;43.536;26.068;2022-09-24T13:16:29;1.48;;;1.33;;
40198;SDS011;25906;43.536;26.068;2022-09-24T13:22:22;1.80;;;1.55;;
40198;SDS011;25906;43.536;26.068;2022-09-24T13:27:57;1.83;;;1.50;;
40198;SDS011;25906;43.536;26.068;2022-09-24T13:30:45;3.60;;;2.05;;
40198;SDS011;25906;43.536;26.068;2022-09-24T13:33:44;3.03;;;1.50;;
40198;SDS011;25906;43.536;26.068;2022-09-24T13:40:00;2.90;;;1.70;;
40198;SDS011;25906;43.536;26.068;2022-09-24T13:46:12;1.63;;;1.52;;
40198;SDS011;25906;43.536;26.068;2022-09-24T13:49:01;6.03;;;1.58;;
40198;SDS011;25906;43.536;26.068;2022-09-24T13:52:05;3.25;;;2.00;;
40198;SDS011;25906;43.536;26.068;2022-09-24T13:54:56;1.83;;;1.45;;
40198;SDS011;25906;43.536;26.068;2022-09-24T13:57:46;2.10;;;1.60;;
40198;SDS011;25906;43.536;26.068;2022-09-24T14:00:32;3.95;;;1.80;;
40198;SDS011;25906;43.536;26.068;2022-09-24T14:03:23;1.55;;;1.45;;
40198;SDS011;25906;43.536;26.068;2022-09-24T14:06:12;2.83;;;1.67;;
40198;SDS011;25906;43.536;26.068;2022-09-24T14:08:59;1.83;;;1.30;;
40198;SDS011;25906;43.536;26.068;2022-09-24T14:11:52;3.53;;;1.80;;
40198;SDS011;25906;43.536;26.068;2022-09-24T14:14:43;1.33;;;1.23;;
40198;SDS011;25906;43.536;26.068;2022-09-24T14:17:33;2.03;;;1.48;;
40198;SDS011;25906;43.536;26.068;2022-09-24T14:20:18;1.88;;;1.60;;
40198;SDS011;25906;43.536;26.068;2022-09-24T14:23:06;2.78;;;1.60;;
40198;SDS011;25906;43.536;26.068;2022-09-24T14:26:03;2.83;;;1.80;;
40198;SDS011;25906;43.536;26.068;2022-09-24T14:28:49;2.00;;;1.60;;
40198;SDS011;25906;43.536;26.068;2022-09-24T14:31:45;1.65;;;1.55;;
40198;SDS011;25906;43.536;26.068;2022-09-24T14:34:36;1.52;;;1.42;;
40198;SDS011;25906;43.536;26.068;2022-09-24T14:37:29;1.40;;;1.30;;
40198;SDS011;25906;43.536;26.068;2022-09-24T14:40:17;4.00;;;1.70;;
40198;SDS011;25906;43.536;26.068;2022-09-24T14:43:05;2.28;;;1.58;;
40198;SDS011;25906;43.536;26.068;2022-09-24T14:46:02;2.35;;;1.55;;
40198;SDS011;25906;43.536;26.068;2022-09-24T14:49:14;3.17;;;1.92;;
40198;SDS011;25906;43.536;26.068;2022-09-24T14:52:23;3.20;;;1.42;;
40198;SDS011;25906;43.536;26.068;2022-09-24T14:55:33;1.50;;;1.40;;
40198;SDS011;25906;43.536;26.068;2022-09-24T14:58:25;1.67;;;1.40;;
40198;SDS011;25906;43.536;26.068;2022-09-24T15:01:18;5.28;;;1.95;;
40198;SDS011;25906;43.536;26.068;2022-09-24T15:04:06;5.78;;;1.63;;
40198;SDS011;25906;43.536;26.068;2022-09-24T15:07:17;2.63;;;1.80;;
40198;SDS011;25906;43.536;26.068;2022-09-24T15:10:16;1.95;;;1.50;;
40198;SDS011;25906;43.536;26.068;2022-09-24T15:13:18;4.03;;;1.70;;
40198;SDS011;25906;43.536;26.068;2022-09-24T15:16:20;1.80;;;1.67;;
40198;SDS011;25906;43.536;26.068;2022-09-24T15:19:13;3.83;;;2.10;;
40198;SDS011;25906;43.536;26.068;2022-09-24T15:21:59;2.60;;;1.88;;
40198;SDS011;25906;43.536;26.068;2022-09-24T15:24:49;2.17;;;1.73;;
40198;SDS011;25906;43.536;26.068;2022-09-24T15:27:38;2.80;;;1.70;;
40198;SDS011;25906;43.536;26.068;2022-09-24T15:30:33;1.63;;;1.50;;
40198;SDS011;25906;43.536;26.068;2022-09-24T15:33:19;3.33;;;2.00;;
40198;SDS011;25906;43.536;26.068;2022-09-24T15:36:05;3.33;;;1.70;;
40198;SDS011;25906;43.536;26.068;2022-09-24T15:38:51;2.13;;;1.90;;
40198;SDS011;25906;43.536;26.068;2022-09-24T15:41:42;4.10;;;1.60;;
40198;SDS011;25906;43.536;26.068;2022-09-24T15:44:27;3.28;;;2.00;;
40198;SDS011;25906;43.536;26.068;2022-09-24T15:47:13;2.95;;;1.90;;
40198;SDS011;25906;43.536;26.068;2022-09-24T15:49:58;3.15;;;1.63;;
40198;SDS011;25906;43.536;26.068;2022-09-24T15:53:02;2.40;;;1.60;;
40198;SDS011;25906;43.536;26.068;2022-09-24T15:56:08;1.73;;;1.60;;
40198;SDS011;25906;43.536;26.068;2022-09-24T15:58:53;2.92;;;1.70;;
40198;SDS011;25906;43.536;26.068;2022-09-24T16:01:39;11.48;;;2.10;;
40198;SDS011;25906;43.536;26.068;2022-09-24T16:04:27;6.60;;;1.90;;
40198;SDS011;25906;43.536;26.068;2022-09-24T16:07:13;5.72;;;2.05;;
40198;SDS011;25906;43.536;26.068;2022-09-24T16:09:58;5.35;;;1.95;;
40198;SDS011;25906;43.536;26.068;2022-09-24T16:12:43;3.13;;;2.00;;
40198;SDS011;25906;43.536;26.068;2022-09-24T16:15:29;3.25;;;2.00;;
40198;SDS011;25906;43.536;26.068;2022-09-24T16:18:15;7.72;;;2.47;;
40198;SDS011;25906;43.536;26.068;2022-09-24T16:21:05;2.88;;;1.80;;
40198;SDS011;25906;43.536;26.068;2022-09-24T16:23:54;3.20;;;2.50;;
40198;SDS011;25906;43.536;26.068;2022-09-24T16:26:40;8.77;;;2.13;;
40198;SDS011;25906;43.536;26.068;2022-09-24T16:29:26;4.15;;;2.75;;
40198;SDS011;25906;43.536;26.068;2022-09-24T16:32:11;8.27;;;1.90;;
40198;SDS011;25906;43.536;26.068;2022-09-24T16:34:57;3.42;;;2.30;;
40198;SDS011;25906;43.536;26.068;2022-09-24T16:37:43;4.63;;;2.42;;
40198;SDS011;25906;43.536;26.068;2022-09-24T16:40:28;25.58;;;8.68;;
40198;SDS011;25906;43.536;26.068;2022-09-24T16:43:14;130.35;;;37.45;;
40198;SDS011;25906;43.536;26.068;2022-09-24T16:46:00;135.20;;;41.88;;
40198;SDS011;25906;43.536;26.068;2022-09-24T16:48:48;105.00;;;36.00;;
40198;SDS011;25906;43.536;26.068;2022-09-24T16:51:33;43.65;;;17.48;;
40198;SDS011;25906;43.536;26.068;2022-09-24T16:54:19;24.30;;;9.93;;
40198;SDS011;25906;43.536;26.068;2022-09-24T16:57:06;19.98;;;8.05;;
40198;SDS011;25906;43.536;26.068;2022-09-24T16:59:52;13.35;;;4.30;;
40198;SDS011;25906;43.536;26.068;2022-09-24T17:02:37;9.30;;;3.47;;
40198;SDS011;25906;43.536;26.068;2022-09-24T17:05:29;5.25;;;2.95;;
40198;SDS011;25906;43.536;26.068;2022-09-24T17:08:15;8.50;;;3.10;;
40198;SDS011;25906;43.536;26.068;2022-09-24T17:11:00;10.82;;;2.92;;
40198;SDS011;25906;43.536;26.068;2022-09-24T17:13:46;5.00;;;2.67;;
40198;SDS011;25906;43.536;26.068;2022-09-24T17:16:32;13.77;;;3.72;;
40198;SDS011;25906;43.536;26.068;2022-09-24T17:19:18;63.90;;;19.50;;
40198;SDS011;25906;43.536;26.068;2022-09-24T17:22:04;144.68;;;46.25;;
40198;SDS011;25906;43.536;26.068;2022-09-24T17:24:49;144.90;;;46.28;;
40198;SDS011;25906;43.536;26.068;2022-09-24T17:27:36;217.80;;;74.45;;
40198;SDS011;25906;43.536;26.068;2022-09-24T17:30:23;175.02;;;60.67;;
40198;SDS011;25906;43.536;26.068;2022-09-24T17:33:10;266.40;;;98.93;;
40198;SDS011;25906;43.536;26.068;2022-09-24T17:35:56;602.88;;;242.15;;
40198;SDS011;25906;43.536;26.068;2022-09-24T17:38:44;448.52;;;181.32;;
40198;SDS011;25906;43.536;26.068;2022-09-24T17:41:30;432.25;;;164.95;;
40198;SDS011;25906;43.536;26.068;2022-09-24T17:44:15;502.02;;;202.80;;
40198;SDS011;25906;43.536;26.068;2022-09-24T17:47:01;370.70;;;148.07;;
40198;SDS011;25906;43.536;26.068;2022-09-24T17:49:47;108.53;;;38.75;;
40198;SDS011;25906;43.536;26.068;2022-09-24T17:52:33;46.35;;;16.20;;
40198;SDS011;25906;43.536;26.068;2022-09-24T17:55:18;17.25;;;8.50;;
40198;SDS011;25906;43.536;26.068;2022-09-24T17:58:03;11.10;;;4.93;;
40198;SDS011;25906;43.536;26.068;2022-09-24T18:00:49;8.48;;;3.80;;
40198;SDS011;25906;43.536;26.068;2022-09-24T18:03:36;6.20;;;3.58;;
40198;SDS011;25906;43.536;26.068;2022-09-24T18:09:11;54.20;;;21.75;;
40198;SDS011;25906;43.536;26.068;2022-09-24T18:11:57;47.35;;;20.40;;
40198;SDS011;25906;43.536;26.068;2022-09-24T18:17:29;56.22;;;21.75;;
40198;SDS011;25906;43.536;26.068;2022-09-24T18:20:15;35.05;;;12.02;;
40198;SDS011;25906;43.536;26.068;2022-09-24T18:23:00;15.52;;;7.20;;
40198;SDS011;25906;43.536;26.068;2022-09-24T18:25:45;15.93;;;7.65;;
40198;SDS011;25906;43.536;26.068;2022-09-24T18:28:32;252.93;;;90.07;;
40198;SDS011;25906;43.536;26.068;2022-09-24T18:34:05;394.58;;;143.27;;
40198;SDS011;25906;43.536;26.068;2022-09-24T18:36:51;208.38;;;79.13;;
40198;SDS011;25906;43.536;26.068;2022-09-24T18:39:36;121.50;;;44.40;;
40198;SDS011;25906;43.536;26.068;2022-09-24T18:42:22;63.33;;;25.17;;
40198;SDS011;25906;43.536;26.068;2022-09-24T18:45:08;21.88;;;8.30;;